createdAt,value
2023-03-24T00:01:57.086Z,1.80
2023-03-24T00:04:28.446Z,1.73
2023-03-24T00:06:55.494Z,1.90
2023-03-24T00:09:22.646Z,1.60
2023-03-24T00:11:49.636Z,1.70
2023-03-24T00:14:16.680Z,1.60
2023-03-24T00:16:43.661Z,1.60
2023-03-24T00:19:13.179Z,1.80
2023-03-24T00:21:42.020Z,2.05
2023-03-24T00:24:11.219Z,2.30
2023-03-24T00:26:40.386Z,2.80
2023-03-24T00:29:11.000Z,1.58
2023-03-24T00:31:40.553Z,1.50
2023-03-24T00:34:09.094Z,2.28
2023-03-24T00:36:37.082Z,1.67
2023-03-24T00:39:06.481Z,1.98
2023-03-24T00:41:33.940Z,2.15
2023-03-24T00:44:06.565Z,1.80
2023-03-24T00:46:35.235Z,1.58
2023-03-24T00:49:05.670Z,1.88
2023-03-24T00:51:37.743Z,1.55
2023-03-24T00:54:06.231Z,1.40
2023-03-24T00:56:35.840Z,1.60
2023-03-24T01:01:35.007Z,1.40
2023-03-24T01:04:03.893Z,1.52
2023-03-24T01:06:30.961Z,1.45
2023-03-24T01:08:57.968Z,1.80
2023-03-24T01:11:26.496Z,2.08
2023-03-24T01:13:54.591Z,1.55
2023-03-24T01:16:25.694Z,1.80
2023-03-24T01:18:52.870Z,1.50
2023-03-24T01:21:19.820Z,1.35
2023-03-24T01:23:47.701Z,1.40
2023-03-24T01:26:15.456Z,2.45
2023-03-24T01:28:43.780Z,1.52
2023-03-24T01:31:11.748Z,1.30
2023-03-24T01:33:39.189Z,1.35
2023-03-24T01:36:07.499Z,1.10
2023-03-24T01:38:35.081Z,1.45
2023-03-24T01:41:03.784Z,2.05
2023-03-24T01:43:33.257Z,1.60
2023-03-24T01:46:19.976Z,1.38
2023-03-24T01:49:04.877Z,1.30
2023-03-24T01:51:39.648Z,1.52
2023-03-24T01:54:31.399Z,1.20
2023-03-24T01:57:26.165Z,1.80
2023-03-24T01:59:57.556Z,1.42
2023-03-24T02:02:26.204Z,0.75
2023-03-24T02:04:58.631Z,0.70
2023-03-24T02:07:33.734Z,0.60
2023-03-24T02:10:04.096Z,0.80
2023-03-24T02:12:32.237Z,0.90
2023-03-24T02:15:00.157Z,0.60
2023-03-24T02:18:02.778Z,0.77
2023-03-24T02:21:10.975Z,0.57
2023-03-24T02:24:09.406Z,0.70
2023-03-24T02:26:55.322Z,0.75
2023-03-24T02:30:00.844Z,0.60
2023-03-24T02:32:55.332Z,0.93
2023-03-24T02:35:59.361Z,1.10
2023-03-24T02:39:03.650Z,1.02
2023-03-24T02:41:49.438Z,0.90
2023-03-24T02:44:22.545Z,0.80
2023-03-24T02:47:16.715Z,1.13
2023-03-24T02:49:59.236Z,0.80
2023-03-24T02:53:11.199Z,1.27
2023-03-24T02:55:54.133Z,1.45
2023-03-24T02:58:48.913Z,1.10
2023-03-24T03:01:31.258Z,1.02
2023-03-24T03:04:04.321Z,1.45
2023-03-24T03:06:36.337Z,1.40
2023-03-24T03:09:09.787Z,1.80
2023-03-24T03:11:41.363Z,1.52
2023-03-24T03:14:20.231Z,1.80
2023-03-24T03:16:53.511Z,1.77
2023-03-24T03:19:31.954Z,2.80
2023-03-24T03:22:00.420Z,2.03
2023-03-24T03:24:33.001Z,2.63
2023-03-24T03:27:08.318Z,2.38
2023-03-24T03:29:39.990Z,3.47
2023-03-24T03:32:12.121Z,3.40
2023-03-24T03:34:52.658Z,2.78
2023-03-24T03:37:32.527Z,2.05
2023-03-24T03:42:29.188Z,1.90
2023-03-24T03:44:56.403Z,2.33
2023-03-24T03:47:23.336Z,2.40
2023-03-24T03:49:50.936Z,1.35
2023-03-24T03:52:18.329Z,1.40
2023-03-24T03:54:45.610Z,1.33
2023-03-24T03:57:14.084Z,1.95
2023-03-24T03:59:41.003Z,3.72
2023-03-24T04:02:42.283Z,2.58
2023-03-24T04:05:30.386Z,3.13
2023-03-24T04:08:18.880Z,3.25
2023-03-24T04:11:14.058Z,2.55
2023-03-24T04:13:50.212Z,2.70
2023-03-24T04:16:23.199Z,2.33
2023-03-24T04:18:59.996Z,2.47
2023-03-24T04:21:34.312Z,2.33
2023-03-24T04:24:05.231Z,2.97
2023-03-24T04:26:55.889Z,2.05
2023-03-24T04:29:53.767Z,1.98
2023-03-24T04:32:30.444Z,1.77
2023-03-24T04:35:02.728Z,2.28
2023-03-24T04:37:33.361Z,1.08
2023-03-24T04:40:06.076Z,1.77
2023-03-24T04:42:36.453Z,1.73
2023-03-24T04:45:05.962Z,1.98
2023-03-24T04:47:39.136Z,3.60
2023-03-24T04:50:11.098Z,1.65
2023-03-24T04:52:42.930Z,1.25
2023-03-24T04:55:51.786Z,1.85
2023-03-24T04:58:21.026Z,1.97
2023-03-24T05:00:49.174Z,2.22
2023-03-24T05:03:17.495Z,1.85
2023-03-24T05:05:47.032Z,1.30
2023-03-24T05:08:16.375Z,1.67
2023-03-24T05:10:43.888Z,3.67
2023-03-24T05:13:11.879Z,1.35
2023-03-24T05:15:39.426Z,1.60
2023-03-24T05:18:06.751Z,2.65
2023-03-24T05:20:33.590Z,1.42
2023-03-24T05:23:01.647Z,1.83
2023-03-24T05:25:28.443Z,1.75
2023-03-24T05:27:55.900Z,1.90
2023-03-24T05:30:22.645Z,2.05
2023-03-24T05:32:49.676Z,1.63
2023-03-24T05:35:16.778Z,1.45
2023-03-24T05:37:43.889Z,1.92
2023-03-24T05:40:11.561Z,1.80
2023-03-24T05:42:39.413Z,2.33
2023-03-24T05:45:06.999Z,2.90
2023-03-24T05:47:34.140Z,1.52
2023-03-24T05:50:01.024Z,3.30
2023-03-24T05:52:29.117Z,2.33
2023-03-24T05:54:56.357Z,4.22
2023-03-24T05:57:23.332Z,2.35
2023-03-24T05:59:50.138Z,2.38
2023-03-24T06:02:17.119Z,1.65
2023-03-24T06:04:49.303Z,1.80
2023-03-24T06:07:17.975Z,2.15
2023-03-24T06:09:50.943Z,1.90
2023-03-24T06:12:18.261Z,2.05
2023-03-24T06:14:45.584Z,1.83
2023-03-24T06:17:17.806Z,2.00
2023-03-24T06:19:48.852Z,3.28
2023-03-24T06:22:20.121Z,1.85
2023-03-24T06:24:47.865Z,2.58
2023-03-24T06:27:15.623Z,2.03
2023-03-24T06:29:42.466Z,2.72
2023-03-24T06:32:10.239Z,3.10
2023-03-24T06:34:38.819Z,2.20
2023-03-24T06:37:06.058Z,1.98
2023-03-24T06:39:33.252Z,1.85
2023-03-24T06:42:00.348Z,1.90
2023-03-24T06:44:27.279Z,2.47
2023-03-24T06:46:54.317Z,1.80
2023-03-24T06:49:21.376Z,2.50
2023-03-24T06:51:48.385Z,3.00
2023-03-24T06:54:15.930Z,2.67
2023-03-24T06:56:43.276Z,1.95
2023-03-24T06:59:10.407Z,2.15
2023-03-24T07:01:38.595Z,3.20
2023-03-24T07:04:06.386Z,2.40
2023-03-24T07:06:40.460Z,2.33
2023-03-24T07:09:13.995Z,2.47
2023-03-24T07:11:41.464Z,2.03
2023-03-24T07:14:08.604Z,1.55
2023-03-24T07:16:35.490Z,2.25
2023-03-24T07:19:02.884Z,2.50
2023-03-24T07:21:29.884Z,3.25
2023-03-24T07:23:56.966Z,1.75
2023-03-24T07:26:23.972Z,2.28
2023-03-24T07:28:51.196Z,2.25
2023-03-24T07:31:18.129Z,3.65
2023-03-24T07:33:45.432Z,2.00
2023-03-24T07:36:12.214Z,1.38
2023-03-24T07:38:40.040Z,2.03
2023-03-24T07:41:07.108Z,1.75
2023-03-24T07:43:34.172Z,1.65
2023-03-24T07:46:01.280Z,1.75
2023-03-24T07:48:28.225Z,1.75
2023-03-24T07:50:55.297Z,1.58
2023-03-24T07:53:22.375Z,2.95
2023-03-24T07:55:49.642Z,2.00
2023-03-24T07:58:16.883Z,2.10
2023-03-24T08:00:44.736Z,1.35
2023-03-24T08:03:15.619Z,1.90
2023-03-24T08:05:44.276Z,1.33
2023-03-24T08:08:11.666Z,1.73
2023-03-24T08:10:38.604Z,1.55
2023-03-24T08:13:05.808Z,1.15
2023-03-24T08:15:32.799Z,2.70
2023-03-24T08:17:59.822Z,1.80
2023-03-24T08:20:28.154Z,2.45
2023-03-24T08:22:55.820Z,1.88
2023-03-24T08:25:24.921Z,1.88
2023-03-24T08:27:52.392Z,1.85
2023-03-24T08:30:26.873Z,2.20
2023-03-24T08:32:59.638Z,1.98
2023-03-24T08:35:31.912Z,1.77
2023-03-24T08:37:59.484Z,2.05
2023-03-24T08:40:28.547Z,2.10
2023-03-24T08:43:02.556Z,2.70
2023-03-24T08:45:31.914Z,1.98
2023-03-24T08:48:01.643Z,3.03
2023-03-24T08:50:32.407Z,1.90
2023-03-24T08:52:59.386Z,2.47
2023-03-24T08:55:27.033Z,3.67
2023-03-24T08:57:54.057Z,2.15
2023-03-24T09:00:21.590Z,2.45
2023-03-24T09:02:51.912Z,1.75
2023-03-24T09:05:22.787Z,2.95
2023-03-24T09:07:56.596Z,1.90
2023-03-24T09:10:23.650Z,1.85
2023-03-24T09:12:50.831Z,2.50
2023-03-24T09:15:17.903Z,2.45
2023-03-24T09:17:45.578Z,2.03
2023-03-24T09:20:15.978Z,1.70
2023-03-24T09:22:45.864Z,2.30
2023-03-24T09:25:16.055Z,2.10
2023-03-24T09:27:43.260Z,1.55
2023-03-24T09:30:11.941Z,2.15
2023-03-24T09:32:38.898Z,2.30
2023-03-24T09:35:08.203Z,1.77
2023-03-24T09:37:36.892Z,1.55
2023-03-24T09:40:05.005Z,1.92
2023-03-24T09:42:40.483Z,3.42
2023-03-24T09:45:16.945Z,1.67
2023-03-24T09:48:11.005Z,1.88
2023-03-24T09:50:53.757Z,1.92
2023-03-24T09:53:37.129Z,2.28
2023-03-24T09:56:14.369Z,1.60
2023-03-24T09:58:42.848Z,2.03
2023-03-24T10:01:15.242Z,2.03
2023-03-24T10:03:46.762Z,1.70
2023-03-24T10:06:23.133Z,2.20
2023-03-24T10:09:16.001Z,1.60
2023-03-24T10:12:03.345Z,1.92
2023-03-24T10:14:32.954Z,2.17
2023-03-24T10:17:12.551Z,2.17
2023-03-24T10:20:07.594Z,1.73
2023-03-24T10:22:48.403Z,2.63
2023-03-24T10:25:21.505Z,1.85
2023-03-24T10:28:12.614Z,2.45
2023-03-24T10:30:44.622Z,2.35
2023-03-24T10:33:13.543Z,1.92
2023-03-24T10:36:07.678Z,1.45
2023-03-24T10:38:35.592Z,2.38
2023-03-24T10:41:03.236Z,1.35
2023-03-24T10:43:32.196Z,2.35
2023-03-24T10:46:02.122Z,1.75
2023-03-24T10:48:43.013Z,1.67
2023-03-24T10:51:23.412Z,2.40
2023-03-24T10:53:52.126Z,1.70
2023-03-24T10:56:42.218Z,1.87
2023-03-24T10:59:33.110Z,3.08
2023-03-24T11:02:23.366Z,2.55
2023-03-24T11:05:03.612Z,1.98
2023-03-24T11:07:36.992Z,2.47
2023-03-24T11:10:09.998Z,2.45
2023-03-24T11:13:18.764Z,1.92
2023-03-24T11:16:10.309Z,2.30
2023-03-24T11:18:37.314Z,2.15
2023-03-24T11:21:06.860Z,2.47
2023-03-24T11:26:13.546Z,2.40
2023-03-24T11:28:47.178Z,1.10
2023-03-24T11:31:31.603Z,2.40
2023-03-24T11:34:03.377Z,1.88
2023-03-24T11:36:30.577Z,1.42
2023-03-24T11:39:02.163Z,1.90
2023-03-24T11:41:29.788Z,1.33
2023-03-24T11:44:22.475Z,1.95
2023-03-24T11:47:18.677Z,2.08
2023-03-24T11:50:11.916Z,1.70
2023-03-24T11:52:54.108Z,1.83
2023-03-24T11:55:29.455Z,1.60
2023-03-24T11:57:58.201Z,1.40
2023-03-24T12:00:34.803Z,2.67
2023-03-24T12:03:23.390Z,2.17
2023-03-24T12:06:06.660Z,4.10
2023-03-24T12:09:02.527Z,3.55
2023-03-24T12:11:51.683Z,2.05
2023-03-24T12:14:42.787Z,2.17
2023-03-24T12:17:28.836Z,2.17
2023-03-24T12:20:44.326Z,1.20
2023-03-24T12:23:43.723Z,1.38
2023-03-24T12:28:51.406Z,0.90
2023-03-24T12:31:45.286Z,1.95
2023-03-24T12:34:22.295Z,4.43
2023-03-24T12:37:01.293Z,2.45
2023-03-24T12:39:37.218Z,2.65
2023-03-24T12:42:12.821Z,3.20
2023-03-24T12:44:51.527Z,2.50
2023-03-24T12:47:26.674Z,1.57
2023-03-24T12:50:02.055Z,1.98
2023-03-24T12:53:07.616Z,3.42
2023-03-24T12:55:43.417Z,1.65
2023-03-24T12:58:42.970Z,4.72
2023-03-24T13:01:35.547Z,2.88
2023-03-24T13:04:08.923Z,1.08
2023-03-24T13:07:01.619Z,1.70
2023-03-24T13:09:31.480Z,1.95
2023-03-24T13:14:37.022Z,1.05
2023-03-24T13:17:13.736Z,2.25
2023-03-24T13:19:42.427Z,1.40
2023-03-24T13:22:16.331Z,1.40
2023-03-24T13:24:45.254Z,2.03
2023-03-24T13:27:26.582Z,1.48
2023-03-24T13:30:02.214Z,2.05
2023-03-24T13:32:44.404Z,1.23
2023-03-24T13:35:29.735Z,1.65
2023-03-24T13:38:18.975Z,2.10
2023-03-24T13:40:50.804Z,2.97
2023-03-24T13:43:22.729Z,2.90
2023-03-24T13:45:52.400Z,4.80
2023-03-24T13:48:32.393Z,5.15
2023-03-24T13:51:04.235Z,3.40
2023-03-24T13:53:33.104Z,2.10
2023-03-24T13:56:01.444Z,2.40
2023-03-24T13:59:05.494Z,2.03
2023-03-24T14:01:40.066Z,1.85
2023-03-24T14:04:19.009Z,2.25
2023-03-24T14:06:47.777Z,1.58
2023-03-24T14:09:30.922Z,2.15
2023-03-24T14:12:03.929Z,2.08
2023-03-24T14:14:35.032Z,2.15
2023-03-24T14:17:16.505Z,1.40
2023-03-24T14:20:10.824Z,1.27
2023-03-24T14:22:49.919Z,0.98
2023-03-24T14:25:16.994Z,1.10
2023-03-24T14:27:47.071Z,1.67
2023-03-24T14:30:26.133Z,1.00
2023-03-24T14:32:56.653Z,2.05
2023-03-24T14:35:32.902Z,0.60
2023-03-24T14:38:17.556Z,2.80
2023-03-24T14:40:49.930Z,0.60
2023-03-24T14:43:30.396Z,0.60
2023-03-24T14:46:06.926Z,0.70
2023-03-24T14:49:09.903Z,0.57
2023-03-24T14:51:52.728Z,1.08
2023-03-24T14:54:29.542Z,1.10
2023-03-24T14:56:58.245Z,1.05
2023-03-24T14:59:39.942Z,0.77
2023-03-24T15:02:26.411Z,0.82
2023-03-24T15:05:34.440Z,0.73
2023-03-24T15:08:18.834Z,1.05
2023-03-24T15:10:53.287Z,1.17
2023-03-24T15:13:34.940Z,1.42
2023-03-24T15:16:06.952Z,1.05
2023-03-24T15:18:34.841Z,1.65
2023-03-24T15:21:13.213Z,2.17
2023-03-24T15:23:40.340Z,1.25
2023-03-24T15:26:16.648Z,1.52
2023-03-24T15:28:43.539Z,1.70
2023-03-24T15:31:12.487Z,1.00
2023-03-24T15:33:43.626Z,0.73
2023-03-24T15:36:16.689Z,0.68
2023-03-24T15:38:51.209Z,1.20
2023-03-24T15:41:22.042Z,0.85
2023-03-24T15:43:53.767Z,0.95
2023-03-24T15:46:27.820Z,1.30
2023-03-24T15:48:56.216Z,1.48
2023-03-24T15:51:50.924Z,1.50
2023-03-24T15:54:31.272Z,1.48
2023-03-24T15:57:22.799Z,1.35
2023-03-24T15:59:55.734Z,1.70
2023-03-24T16:02:43.334Z,1.50
2023-03-24T16:05:36.441Z,1.58
2023-03-24T16:08:05.759Z,1.27
2023-03-24T16:10:40.349Z,1.02
2023-03-24T16:13:19.576Z,2.45
2023-03-24T16:16:14.436Z,2.95
2023-03-24T16:18:43.925Z,1.83
2023-03-24T16:21:20.455Z,1.13
2023-03-24T16:23:48.684Z,1.27
2023-03-24T16:26:18.500Z,1.80
2023-03-24T16:31:17.977Z,2.40
2023-03-24T16:33:45.269Z,1.35
2023-03-24T16:36:13.429Z,1.00
2023-03-24T16:38:40.397Z,0.77
2023-03-24T16:41:10.978Z,0.75
2023-03-24T16:43:38.100Z,0.75
2023-03-24T16:46:06.058Z,0.60
2023-03-24T16:48:33.068Z,0.63
2023-03-24T16:51:00.110Z,0.43
2023-03-24T16:53:27.081Z,0.52
2023-03-24T16:55:54.144Z,0.90
2023-03-24T16:58:21.286Z,0.35
2023-03-24T17:00:49.606Z,0.75
2023-03-24T17:03:17.889Z,0.68
2023-03-24T17:05:51.104Z,0.50
2023-03-24T17:08:19.103Z,0.70
2023-03-24T17:10:49.470Z,0.70
2023-03-24T17:13:25.541Z,0.50
2023-03-24T17:15:53.053Z,1.90
2023-03-24T17:18:20.507Z,0.90
2023-03-24T17:20:48.382Z,0.60
2023-03-24T17:23:18.598Z,1.02
2023-03-24T17:25:46.056Z,1.15
2023-03-24T17:28:15.568Z,1.02
2023-03-24T17:30:42.838Z,0.57
2023-03-24T17:33:15.782Z,0.98
2023-03-24T17:35:46.525Z,0.82
2023-03-24T17:38:16.387Z,1.10
2023-03-24T17:43:10.326Z,0.63
2023-03-24T17:45:37.348Z,0.73
2023-03-24T17:48:04.592Z,0.40
2023-03-24T17:50:31.726Z,0.52
2023-03-24T17:53:00.585Z,1.05
2023-03-24T17:55:27.533Z,0.73
2023-03-24T17:57:54.673Z,1.15
2023-03-24T18:00:21.841Z,1.35
2023-03-24T18:02:48.800Z,0.80
2023-03-24T18:05:15.784Z,0.80
2023-03-24T18:07:42.854Z,0.70
2023-03-24T18:10:10.186Z,1.05
2023-03-24T18:12:37.381Z,1.63
2023-03-24T18:15:07.108Z,1.10
2023-03-24T18:17:34.370Z,0.98
2023-03-24T18:20:09.927Z,0.80
2023-03-24T18:22:40.738Z,0.80
2023-03-24T18:25:10.656Z,1.00
2023-03-24T18:30:06.832Z,0.90
2023-03-24T18:32:35.934Z,0.90
2023-03-24T18:35:02.889Z,0.60
2023-03-24T18:37:29.959Z,0.80
2023-03-24T18:39:57.004Z,1.02
2023-03-24T18:42:23.980Z,0.85
2023-03-24T18:44:51.539Z,0.75
2023-03-24T18:47:18.885Z,1.15
2023-03-24T18:49:46.064Z,1.27
2023-03-24T18:52:17.909Z,0.80
2023-03-24T18:54:45.840Z,1.15
2023-03-24T18:57:13.089Z,1.27
2023-03-24T18:59:39.808Z,0.70
2023-03-24T19:02:07.299Z,0.80
2023-03-24T19:04:34.452Z,1.08
2023-03-24T19:07:04.046Z,0.90
2023-03-24T19:09:31.394Z,1.00
2023-03-24T19:11:58.411Z,1.45
2023-03-24T19:14:26.538Z,1.73
2023-03-24T19:16:53.330Z,0.80
2023-03-24T19:19:20.438Z,1.08
2023-03-24T19:21:47.592Z,0.70
2023-03-24T19:24:14.577Z,0.90
2023-03-24T19:26:41.553Z,0.93
2023-03-24T19:29:08.559Z,1.40
2023-03-24T19:31:35.712Z,0.90
2023-03-24T19:34:03.968Z,1.02
2023-03-24T19:36:30.965Z,1.15
2023-03-24T19:38:58.027Z,1.60
2023-03-24T19:41:26.349Z,1.15
2023-03-24T19:43:53.813Z,0.90
2023-03-24T19:46:21.160Z,0.85
2023-03-24T19:48:48.438Z,1.58
2023-03-24T19:51:15.278Z,1.30
2023-03-24T19:53:42.397Z,1.33
2023-03-24T19:56:09.500Z,1.00
2023-03-24T19:58:36.481Z,1.33
2023-03-24T20:01:03.364Z,1.50
2023-03-24T20:03:30.199Z,1.33
2023-03-24T20:06:02.361Z,1.33
2023-03-24T20:08:29.247Z,1.30
2023-03-24T20:10:56.240Z,0.98
2023-03-24T20:13:25.726Z,1.23
2023-03-24T20:15:53.301Z,1.17
2023-03-24T20:18:20.631Z,2.30
2023-03-24T20:20:47.711Z,1.35
2023-03-24T20:23:14.707Z,0.80
2023-03-24T20:25:42.607Z,0.88
2023-03-24T20:28:09.459Z,1.40
2023-03-24T20:30:36.263Z,0.93
2023-03-24T20:33:03.437Z,1.20
2023-03-24T20:35:30.498Z,1.02
2023-03-24T20:37:57.460Z,0.90
2023-03-24T20:40:25.625Z,1.30
2023-03-24T20:42:52.887Z,1.10
2023-03-24T20:45:19.801Z,0.88
2023-03-24T20:47:47.131Z,0.82
2023-03-24T20:50:14.306Z,1.10
2023-03-24T20:52:41.367Z,1.10
2023-03-24T20:55:09.971Z,1.30
2023-03-24T20:57:37.336Z,0.90
2023-03-24T21:00:13.295Z,0.85
2023-03-24T21:02:42.029Z,1.15
2023-03-24T21:05:09.608Z,1.10
2023-03-24T21:07:38.157Z,1.10
2023-03-24T21:10:06.758Z,0.85
2023-03-24T21:12:34.523Z,1.20
2023-03-24T21:15:02.166Z,0.88
2023-03-24T21:17:32.346Z,0.90
2023-03-24T21:20:13.192Z,1.30
2023-03-24T21:22:56.150Z,1.10
2023-03-24T21:25:26.573Z,1.80
2023-03-24T21:27:54.684Z,1.17
2023-03-24T21:30:22.866Z,1.10
2023-03-24T21:32:52.141Z,1.48
2023-03-24T21:35:20.795Z,1.23
2023-03-24T21:37:48.132Z,1.58
2023-03-24T21:40:18.380Z,1.33
2023-03-24T21:42:46.755Z,1.13
2023-03-24T21:45:16.664Z,1.00
2023-03-24T21:50:18.859Z,1.42
2023-03-24T21:52:47.634Z,1.77
2023-03-24T21:55:16.532Z,1.30
2023-03-24T21:57:45.566Z,0.90
2023-03-24T22:00:19.521Z,1.17
2023-03-24T22:02:49.866Z,1.30
2023-03-24T22:05:22.371Z,1.45
2023-03-24T22:07:50.533Z,0.95
2023-03-24T22:10:22.708Z,1.80
2023-03-24T22:12:51.424Z,1.20
2023-03-24T22:15:19.755Z,1.30
2023-03-24T22:17:47.149Z,1.00
2023-03-24T22:20:14.746Z,1.40
2023-03-24T22:22:42.329Z,1.20
2023-03-24T22:25:12.150Z,1.00
2023-03-24T22:30:07.452Z,1.27
2023-03-24T22:32:35.713Z,0.98
2023-03-24T22:35:02.790Z,1.73
2023-03-24T22:37:29.915Z,1.15
2023-03-24T22:39:57.074Z,1.10
2023-03-24T22:42:24.134Z,1.30
2023-03-24T22:44:51.258Z,1.48
2023-03-24T22:47:19.392Z,1.63
2023-03-24T22:49:46.571Z,0.80
2023-03-24T22:52:13.550Z,1.10
2023-03-24T22:54:40.686Z,1.70
2023-03-24T22:57:07.745Z,1.08
2023-03-24T22:59:35.661Z,0.50
2023-03-24T23:02:09.839Z,1.10
2023-03-24T23:04:39.710Z,0.70
2023-03-24T23:07:07.655Z,0.90
2023-03-24T23:09:34.909Z,0.90
2023-03-24T23:12:02.492Z,0.93
2023-03-24T23:14:30.002Z,0.90
2023-03-24T23:16:57.261Z,0.95
2023-03-24T23:19:24.192Z,0.88
2023-03-24T23:21:51.341Z,0.80
2023-03-24T23:24:18.397Z,0.95
2023-03-24T23:26:47.289Z,0.60
2023-03-24T23:29:14.468Z,1.10
2023-03-24T23:31:41.577Z,0.70
2023-03-24T23:34:11.223Z,1.10
2023-03-24T23:36:39.785Z,0.65
2023-03-24T23:39:06.798Z,0.60
2023-03-24T23:41:34.156Z,0.80
2023-03-24T23:44:01.214Z,0.68
2023-03-24T23:46:28.441Z,0.80
2023-03-24T23:48:55.373Z,0.90
2023-03-24T23:51:22.590Z,1.13
2023-03-24T23:53:49.425Z,1.33
2023-03-24T23:56:21.293Z,1.10
2023-03-24T23:58:48.409Z,0.90
